sensor_id;sensor_type;location;lat;lon;timestamp;pressure;altitude;pressure_sealevel;temperature;humidity
49315;BME280;36672;50.710;12.498;2023-02-20T00:00:03;99220.28;;;4.28;91.85
49315;BME280;36672;50.710;12.498;2023-02-20T00:02:28;99221.13;;;4.29;91.69
49315;BME280;36672;50.710;12.498;2023-02-20T00:04:56;99215.63;;;4.30;92.10
49315;BME280;36672;50.710;12.498;2023-02-20T00:07:21;99217.34;;;4.31;91.78
49315;BME280;36672;50.710;12.498;2023-02-20T00:09:46;99218.16;;;4.32;91.86
49315;BME280;36672;50.710;12.498;2023-02-20T00:12:11;99217.75;;;4.36;92.53
49315;BME280;36672;50.710;12.498;2023-02-20T00:14:36;99223.50;;;4.41;92.28
49315;BME280;36672;50.710;12.498;2023-02-20T00:17:02;99216.03;;;4.45;92.17
49315;BME280;36672;50.710;12.498;2023-02-20T00:19:27;99208.44;;;4.50;92.85
49315;BME280;36672;50.710;12.498;2023-02-20T00:21:52;99219.53;;;4.55;93.19
49315;BME280;36672;50.710;12.498;2023-02-20T00:24:18;99219.94;;;4.61;93.09
49315;BME280;36672;50.710;12.498;2023-02-20T00:26:45;99214.34;;;4.64;93.35
49315;BME280;36672;50.710;12.498;2023-02-20T00:29:10;99217.41;;;4.69;93.36
49315;BME280;36672;50.710;12.498;2023-02-20T00:31:38;99218.81;;;4.73;93.44
49315;BME280;36672;50.710;12.498;2023-02-20T00:34:03;99212.88;;;4.79;93.34
49315;BME280;36672;50.710;12.498;2023-02-20T00:36:28;99208.75;;;4.85;94.02
49315;BME280;36672;50.710;12.498;2023-02-20T00:38:53;99207.63;;;4.87;93.86
49315;BME280;36672;50.710;12.498;2023-02-20T00:41:19;99204.50;;;4.92;93.82
49315;BME280;36672;50.710;12.498;2023-02-20T00:43:45;99200.00;;;4.93;93.93
49315;BME280;36672;50.710;12.498;2023-02-20T00:46:11;99192.50;;;4.96;94.21
49315;BME280;36672;50.710;12.498;2023-02-20T00:48:37;99198.41;;;5.00;94.11
49315;BME280;36672;50.710;12.498;2023-02-20T00:51:02;99200.13;;;5.01;94.39
49315;BME280;36672;50.710;12.498;2023-02-20T00:53:27;99193.63;;;5.03;94.07
49315;BME280;36672;50.710;12.498;2023-02-20T00:55:52;99196.28;;;5.03;94.24
49315;BME280;36672;50.710;12.498;2023-02-20T00:58:17;99200.50;;;5.06;94.15
49315;BME280;36672;50.710;12.498;2023-02-20T01:00:43;99198.38;;;5.10;94.21
49315;BME280;36672;50.710;12.498;2023-02-20T01:03:08;99199.06;;;5.12;94.52
49315;BME280;36672;50.710;12.498;2023-02-20T01:05:33;99192.59;;;5.14;94.44
49315;BME280;36672;50.710;12.498;2023-02-20T01:07:58;99191.56;;;5.15;94.54
49315;BME280;36672;50.710;12.498;2023-02-20T01:10:24;99199.63;;;5.15;94.52
49315;BME280;36672;50.710;12.498;2023-02-20T01:12:49;99198.63;;;5.16;94.52
49315;BME280;36672;50.710;12.498;2023-02-20T01:15:14;99196.81;;;5.17;94.62
49315;BME280;36672;50.710;12.498;2023-02-20T01:17:39;99199.34;;;5.18;94.75
49315;BME280;36672;50.710;12.498;2023-02-20T01:20:05;99191.97;;;5.20;95.00
49315;BME280;36672;50.710;12.498;2023-02-20T01:22:31;99197.22;;;5.22;94.66
49315;BME280;36672;50.710;12.498;2023-02-20T01:24:56;99187.31;;;5.22;94.75
49315;BME280;36672;50.710;12.498;2023-02-20T01:27:21;99190.72;;;5.25;95.05
49315;BME280;36672;50.710;12.498;2023-02-20T01:29:47;99185.19;;;5.26;95.14
49315;BME280;36672;50.710;12.498;2023-02-20T01:32:12;99181.38;;;5.29;95.01
49315;BME280;36672;50.710;12.498;2023-02-20T01:34:37;99186.72;;;5.29;95.03
49315;BME280;36672;50.710;12.498;2023-02-20T01:37:02;99176.00;;;5.29;94.65
49315;BME280;36672;50.710;12.498;2023-02-20T01:39:28;99177.69;;;5.30;95.26
49315;BME280;36672;50.710;12.498;2023-02-20T01:42:04;99179.41;;;5.31;94.73
49315;BME280;36672;50.710;12.498;2023-02-20T01:44:32;99178.25;;;5.33;95.13
49315;BME280;36672;50.710;12.498;2023-02-20T01:46:59;99183.63;;;5.33;95.02
49315;BME280;36672;50.710;12.498;2023-02-20T01:49:33;99178.25;;;5.33;95.06
49315;BME280;36672;50.710;12.498;2023-02-20T01:52:04;99175.41;;;5.35;94.86
49315;BME280;36672;50.710;12.498;2023-02-20T01:54:31;99173.72;;;5.34;95.00
49315;BME280;36672;50.710;12.498;2023-02-20T01:57:00;99169.50;;;5.31;94.61
49315;BME280;36672;50.710;12.498;2023-02-20T01:59:26;99167.66;;;5.32;94.95
49315;BME280;36672;50.710;12.498;2023-02-20T02:01:53;99177.53;;;5.31;95.02
49315;BME280;36672;50.710;12.498;2023-02-20T02:04:19;99171.19;;;5.32;95.04
49315;BME280;36672;50.710;12.498;2023-02-20T02:06:45;99174.72;;;5.33;95.14
49315;BME280;36672;50.710;12.498;2023-02-20T02:09:16;99171.19;;;5.32;95.14
49315;BME280;36672;50.710;12.498;2023-02-20T02:11:42;99160.47;;;5.32;95.13
49315;BME280;36672;50.710;12.498;2023-02-20T02:14:08;99161.47;;;5.31;94.88
49315;BME280;36672;50.710;12.498;2023-02-20T02:38:12;99129.69;;;5.18;94.72
49315;BME280;36672;50.710;12.498;2023-02-20T02:43:16;99118.31;;;5.06;94.34
49315;BME280;36672;50.710;12.498;2023-02-20T02:45:54;99118.94;;;5.00;94.17
49315;BME280;36672;50.710;12.498;2023-02-20T02:48:21;99107.94;;;4.94;94.45
49315;BME280;36672;50.710;12.498;2023-02-20T02:50:50;99107.72;;;4.87;94.38
49315;BME280;36672;50.710;12.498;2023-02-20T02:53:18;99112.53;;;4.83;94.27
49315;BME280;36672;50.710;12.498;2023-02-20T02:55:43;99108.47;;;4.79;94.00
49315;BME280;36672;50.710;12.498;2023-02-20T02:58:09;99098.19;;;4.74;94.29
49315;BME280;36672;50.710;12.498;2023-02-20T03:03:35;99096.97;;;4.69;94.05
49315;BME280;36672;50.710;12.498;2023-02-20T03:06:04;99095.94;;;4.70;94.28
49315;BME280;36672;50.710;12.498;2023-02-20T03:11:06;99091.28;;;4.72;94.39
49315;BME280;36672;50.710;12.498;2023-02-20T03:13:34;99095.34;;;4.76;94.08
49315;BME280;36672;50.710;12.498;2023-02-20T03:16:20;99102.13;;;4.80;94.32
49315;BME280;36672;50.710;12.498;2023-02-20T03:18:46;99090.94;;;4.85;94.41
49315;BME280;36672;50.710;12.498;2023-02-20T03:21:16;99096.31;;;4.85;93.91
49315;BME280;36672;50.710;12.498;2023-02-20T03:23:43;99093.34;;;4.88;93.99
49315;BME280;36672;50.710;12.498;2023-02-20T03:26:10;99094.72;;;4.92;93.64
49315;BME280;36672;50.710;12.498;2023-02-20T03:28:43;99099.75;;;4.95;93.76
49315;BME280;36672;50.710;12.498;2023-02-20T03:31:14;99105.53;;;5.00;93.78
49315;BME280;36672;50.710;12.498;2023-02-20T03:34:23;99112.44;;;5.03;93.42
49315;BME280;36672;50.710;12.498;2023-02-20T03:37:30;99113.09;;;5.05;93.00
49315;BME280;36672;50.710;12.498;2023-02-20T03:39:56;99096.88;;;5.06;92.86
49315;BME280;36672;50.710;12.498;2023-02-20T03:42:42;99105.78;;;5.07;92.33
49315;BME280;36672;50.710;12.498;2023-02-20T03:45:27;99118.19;;;5.08;91.99
49315;BME280;36672;50.710;12.498;2023-02-20T03:47:56;99105.78;;;5.07;91.79
49315;BME280;36672;50.710;12.498;2023-02-20T03:50:22;99105.78;;;5.07;91.51
49315;BME280;36672;50.710;12.498;2023-02-20T03:52:48;99101.97;;;5.10;91.81
49315;BME280;36672;50.710;12.498;2023-02-20T03:55:14;99102.63;;;5.12;91.51
49315;BME280;36672;50.710;12.498;2023-02-20T03:57:40;99098.97;;;5.13;91.54
49315;BME280;36672;50.710;12.498;2023-02-20T04:00:10;99099.94;;;5.12;90.71
49315;BME280;36672;50.710;12.498;2023-02-20T04:02:38;99104.31;;;5.13;90.59
49315;BME280;36672;50.710;12.498;2023-02-20T04:05:06;99115.75;;;5.15;90.49
49315;BME280;36672;50.710;12.498;2023-02-20T04:07:34;99098.97;;;5.13;90.08
49315;BME280;36672;50.710;12.498;2023-02-20T04:10:01;99110.38;;;5.15;90.08
49315;BME280;36672;50.710;12.498;2023-02-20T04:12:29;99116.56;;;5.15;89.78
49315;BME280;36672;50.710;12.498;2023-02-20T04:14:55;99105.03;;;5.15;89.60
49315;BME280;36672;50.710;12.498;2023-02-20T04:17:26;99094.31;;;5.15;89.72
49315;BME280;36672;50.710;12.498;2023-02-20T04:19:54;99104.88;;;5.16;89.23
49315;BME280;36672;50.710;12.498;2023-02-20T04:22:21;99107.38;;;5.18;89.20
49315;BME280;36672;50.710;12.498;2023-02-20T04:24:52;99108.25;;;5.18;88.43
49315;BME280;36672;50.710;12.498;2023-02-20T04:27:19;99110.94;;;5.18;88.61
49315;BME280;36672;50.710;12.498;2023-02-20T04:29:44;99106.41;;;5.19;88.20
49315;BME280;36672;50.710;12.498;2023-02-20T04:32:09;99110.63;;;5.21;88.03
49315;BME280;36672;50.710;12.498;2023-02-20T04:34:35;99110.34;;;5.25;88.50
49315;BME280;36672;50.710;12.498;2023-02-20T04:37:06;99110.47;;;5.23;87.69
49315;BME280;36672;50.710;12.498;2023-02-20T04:39:31;99109.63;;;5.22;87.59
49315;BME280;36672;50.710;12.498;2023-02-20T04:41:56;99116.53;;;5.25;87.64
49315;BME280;36672;50.710;12.498;2023-02-20T04:44:21;99111.00;;;5.27;87.42
49315;BME280;36672;50.710;12.498;2023-02-20T04:46:56;99112.16;;;5.24;86.39
49315;BME280;36672;50.710;12.498;2023-02-20T04:49:21;99112.31;;;5.22;86.30
49315;BME280;36672;50.710;12.498;2023-02-20T04:51:47;99116.53;;;5.25;86.42
49315;BME280;36672;50.710;12.498;2023-02-20T04:54:12;99117.50;;;5.24;86.19
49315;BME280;36672;50.710;12.498;2023-02-20T04:56:37;99125.69;;;5.22;85.58
49315;BME280;36672;50.710;12.498;2023-02-20T04:59:02;99122.72;;;5.26;85.97
49315;BME280;36672;50.710;12.498;2023-02-20T05:01:28;99125.38;;;5.26;85.69
49315;BME280;36672;50.710;12.498;2023-02-20T05:03:53;99121.88;;;5.25;85.39
49315;BME280;36672;50.710;12.498;2023-02-20T05:06:18;99115.81;;;5.23;85.16
49315;BME280;36672;50.710;12.498;2023-02-20T05:08:43;99112.16;;;5.24;85.21
49315;BME280;36672;50.710;12.498;2023-02-20T05:11:09;99111.47;;;5.22;85.12
49315;BME280;36672;50.710;12.498;2023-02-20T05:13:34;99106.13;;;5.22;84.98
49315;BME280;36672;50.710;12.498;2023-02-20T05:15:59;99110.47;;;5.23;84.84
49315;BME280;36672;50.710;12.498;2023-02-20T05:18:28;99110.78;;;5.20;84.66
49315;BME280;36672;50.710;12.498;2023-02-20T05:20:53;99101.91;;;5.19;84.39
49315;BME280;36672;50.710;12.498;2023-02-20T05:23:37;99094.47;;;5.13;83.76
49315;BME280;36672;50.710;12.498;2023-02-20T05:26:02;99109.41;;;5.16;84.35
49315;BME280;36672;50.710;12.498;2023-02-20T05:28:28;99104.19;;;5.14;84.35
49315;BME280;36672;50.710;12.498;2023-02-20T05:30:53;99097.28;;;5.12;84.21
49315;BME280;36672;50.710;12.498;2023-02-20T05:33:18;99094.84;;;5.18;84.28
49315;BME280;36672;50.710;12.498;2023-02-20T05:35:43;99090.09;;;5.12;84.00
49315;BME280;36672;50.710;12.498;2023-02-20T05:38:08;99075.84;;;5.12;83.83
49315;BME280;36672;50.710;12.498;2023-02-20T05:40:34;99083.88;;;5.12;83.61
49315;BME280;36672;50.710;12.498;2023-02-20T05:42:59;99082.91;;;5.13;83.49
49315;BME280;36672;50.710;12.498;2023-02-20T05:45:24;99082.91;;;5.13;83.22
49315;BME280;36672;50.710;12.498;2023-02-20T05:47:49;99077.69;;;5.11;83.25
49315;BME280;36672;50.710;12.498;2023-02-20T05:50:15;99071.50;;;5.11;82.58
49315;BME280;36672;50.710;12.498;2023-02-20T05:52:40;99070.97;;;5.07;82.16
49315;BME280;36672;50.710;12.498;2023-02-20T05:55:06;99064.06;;;5.04;81.82
49315;BME280;36672;50.710;12.498;2023-02-20T05:57:31;99058.41;;;5.07;82.29
49315;BME280;36672;50.710;12.498;2023-02-20T05:59:56;99037.84;;;5.08;82.09
49315;BME280;36672;50.710;12.498;2023-02-20T06:02:22;99031.63;;;5.07;81.45
49315;BME280;36672;50.710;12.498;2023-02-20T06:04:47;99023.59;;;5.07;80.93
49315;BME280;36672;50.710;12.498;2023-02-20T06:07:12;99030.94;;;5.05;80.46
49315;BME280;36672;50.710;12.498;2023-02-20T06:09:40;99029.09;;;5.06;80.32
49315;BME280;36672;50.710;12.498;2023-02-20T06:12:05;99028.94;;;5.07;80.37
49315;BME280;36672;50.710;12.498;2023-02-20T06:14:31;99033.16;;;5.10;80.15
49315;BME280;36672;50.710;12.498;2023-02-20T06:16:56;99046.31;;;5.03;78.97
49315;BME280;36672;50.710;12.498;2023-02-20T06:19:22;99050.53;;;5.06;79.25
49315;BME280;36672;50.710;12.498;2023-02-20T06:21:48;99043.03;;;5.10;79.63
49315;BME280;36672;50.710;12.498;2023-02-20T06:24:16;99042.03;;;5.11;79.49
49315;BME280;36672;50.710;12.498;2023-02-20T06:26:42;99059.50;;;5.15;79.22
49315;BME280;36672;50.710;12.498;2023-02-20T06:29:07;99071.91;;;5.16;79.37
49315;BME280;36672;50.710;12.498;2023-02-20T06:31:33;99072.13;;;5.22;79.55
49315;BME280;36672;50.710;12.498;2023-02-20T06:33:58;99066.91;;;5.21;79.16
49315;BME280;36672;50.710;12.498;2023-02-20T06:36:25;99057.03;;;5.21;79.28
49315;BME280;36672;50.710;12.498;2023-02-20T06:38:51;99048.06;;;5.13;78.76
49315;BME280;36672;50.710;12.498;2023-02-20T06:41:16;99063.00;;;5.15;79.33
49315;BME280;36672;50.710;12.498;2023-02-20T06:43:42;99067.38;;;5.16;78.98
49315;BME280;36672;50.710;12.498;2023-02-20T06:46:07;99054.19;;;5.23;78.97
49315;BME280;36672;50.710;12.498;2023-02-20T06:48:32;99045.50;;;5.21;78.58
49315;BME280;36672;50.710;12.498;2023-02-20T06:50:58;99052.53;;;5.22;78.83
49315;BME280;36672;50.710;12.498;2023-02-20T06:53:23;99048.72;;;5.25;78.38
49315;BME280;36672;50.710;12.498;2023-02-20T06:55:48;99030.78;;;5.25;78.19
49315;BME280;36672;50.710;12.498;2023-02-20T06:58:13;99013.41;;;5.29;78.49
49315;BME280;36672;50.710;12.498;2023-02-20T07:00:38;99017.31;;;5.35;78.74
49315;BME280;36672;50.710;12.498;2023-02-20T07:03:04;99026.50;;;5.32;78.18
49315;BME280;36672;50.710;12.498;2023-02-20T07:05:29;99022.53;;;5.36;78.38
49315;BME280;36672;50.710;12.498;2023-02-20T07:07:54;99039.69;;;5.44;78.26
49315;BME280;36672;50.710;12.498;2023-02-20T07:10:20;99039.34;;;5.47;77.88
49315;BME280;36672;50.710;12.498;2023-02-20T07:12:45;99042.19;;;5.45;76.99
49315;BME280;36672;50.710;12.498;2023-02-20T07:15:10;99033.84;;;5.48;77.15
49315;BME280;36672;50.710;12.498;2023-02-20T07:17:36;99028.63;;;5.47;76.40
49315;BME280;36672;50.710;12.498;2023-02-20T07:20:02;99039.34;;;5.47;76.42
49315;BME280;36672;50.710;12.498;2023-02-20T07:22:28;99032.69;;;5.51;76.07
49315;BME280;36672;50.710;12.498;2023-02-20T07:24:53;99023.34;;;5.55;75.96
49315;BME280;36672;50.710;12.498;2023-02-20T07:27:19;99021.06;;;5.60;75.99
49315;BME280;36672;50.710;12.498;2023-02-20T07:29:45;99022.25;;;5.66;75.64
49315;BME280;36672;50.710;12.498;2023-02-20T07:32:11;99014.03;;;5.67;75.02
49315;BME280;36672;50.710;12.498;2023-02-20T07:34:36;99001.88;;;5.73;75.04
49315;BME280;36672;50.710;12.498;2023-02-20T07:37:01;98987.63;;;5.72;74.57
49315;BME280;36672;50.710;12.498;2023-02-20T07:39:26;98997.34;;;5.74;74.68
49315;BME280;36672;50.710;12.498;2023-02-20T07:41:52;99018.50;;;5.77;74.41
49315;BME280;36672;50.710;12.498;2023-02-20T07:44:17;99020.06;;;5.87;74.79
49315;BME280;36672;50.710;12.498;2023-02-20T07:46:42;99016.72;;;5.85;73.42
49315;BME280;36672;50.710;12.498;2023-02-20T07:49:08;99013.25;;;5.93;73.76
49315;BME280;36672;50.710;12.498;2023-02-20T07:51:33;99008.97;;;6.00;73.83
49315;BME280;36672;50.710;12.498;2023-02-20T07:53:58;98996.22;;;6.02;73.90
49315;BME280;36672;50.710;12.498;2023-02-20T07:56:24;98979.38;;;6.18;73.20
49315;BME280;36672;50.710;12.498;2023-02-20T07:58:49;98984.50;;;6.38;72.61
49315;BME280;36672;50.710;12.498;2023-02-20T08:01:15;98985.94;;;6.67;72.51
49315;BME280;36672;50.710;12.498;2023-02-20T08:03:40;98979.50;;;7.11;70.82
49315;BME280;36672;50.710;12.498;2023-02-20T08:06:06;98979.47;;;7.77;70.23
49315;BME280;36672;50.710;12.498;2023-02-20T08:08:31;98977.72;;;8.09;67.20
49315;BME280;36672;50.710;12.498;2023-02-20T08:10:57;98972.09;;;8.35;66.57
49315;BME280;36672;50.710;12.498;2023-02-20T08:13:22;98964.47;;;8.55;65.00
49315;BME280;36672;50.710;12.498;2023-02-20T08:15:47;98958.59;;;9.29;64.76
49315;BME280;36672;50.710;12.498;2023-02-20T08:18:13;98963.13;;;10.35;62.30
49315;BME280;36672;50.710;12.498;2023-02-20T08:20:38;98961.50;;;11.29;57.93
49315;BME280;36672;50.710;12.498;2023-02-20T08:23:04;98969.91;;;11.63;57.76
49315;BME280;36672;50.710;12.498;2023-02-20T08:25:30;98958.22;;;11.12;55.91
49315;BME280;36672;50.710;12.498;2023-02-20T08:27:56;98961.81;;;10.98;57.19
49315;BME280;36672;50.710;12.498;2023-02-20T08:30:23;98944.66;;;10.69;58.23
49315;BME280;36672;50.710;12.498;2023-02-20T08:32:52;98938.88;;;10.72;57.93
49315;BME280;36672;50.710;12.498;2023-02-20T08:35:18;98957.03;;;11.15;56.30
49315;BME280;36672;50.710;12.498;2023-02-20T08:37:43;98933.28;;;10.73;56.91
49315;BME280;36672;50.710;12.498;2023-02-20T08:40:09;98926.88;;;10.59;57.16
49315;BME280;36672;50.710;12.498;2023-02-20T08:42:34;98925.88;;;10.16;59.33
49315;BME280;36672;50.710;12.498;2023-02-20T08:45:03;98927.63;;;9.63;59.83
49315;BME280;36672;50.710;12.498;2023-02-20T08:47:29;98898.69;;;9.19;61.45
49315;BME280;36672;50.710;12.498;2023-02-20T08:49:54;98928.06;;;9.14;62.91
49315;BME280;36672;50.710;12.498;2023-02-20T08:52:19;98933.94;;;9.56;60.48
49315;BME280;36672;50.710;12.498;2023-02-20T08:54:45;98907.28;;;9.91;59.20
49315;BME280;36672;50.710;12.498;2023-02-20T08:57:10;98916.34;;;10.65;58.97
49315;BME280;36672;50.710;12.498;2023-02-20T08:59:36;98921.78;;;10.86;56.38
49315;BME280;36672;50.710;12.498;2023-02-20T09:02:02;98895.81;;;10.70;55.86
49315;BME280;36672;50.710;12.498;2023-02-20T09:04:27;98910.28;;;10.63;56.76
49315;BME280;36672;50.710;12.498;2023-02-20T09:06:53;98926.84;;;10.38;55.59
49315;BME280;36672;50.710;12.498;2023-02-20T09:09:18;98905.28;;;10.29;56.73
49315;BME280;36672;50.710;12.498;2023-02-20T09:11:43;98901.50;;;10.24;56.13
49315;BME280;36672;50.710;12.498;2023-02-20T09:14:08;98904.38;;;10.37;56.08
49315;BME280;36672;50.710;12.498;2023-02-20T09:16:34;98904.75;;;10.49;56.34
49315;BME280;36672;50.710;12.498;2023-02-20T09:18:59;98912.66;;;10.21;56.21
49315;BME280;36672;50.710;12.498;2023-02-20T09:21:25;98888.66;;;9.96;56.49
49315;BME280;36672;50.710;12.498;2023-02-20T09:23:52;98895.34;;;10.00;57.22
49315;BME280;36672;50.710;12.498;2023-02-20T09:26:17;98898.53;;;9.89;56.41
49315;BME280;36672;50.710;12.498;2023-02-20T09:28:43;98899.38;;;9.74;57.25
49315;BME280;36672;50.710;12.498;2023-02-20T09:31:08;98892.19;;;9.82;58.26
49315;BME280;36672;50.710;12.498;2023-02-20T09:33:33;98892.56;;;9.78;57.59
49315;BME280;36672;50.710;12.498;2023-02-20T09:35:58;98893.59;;;9.77;56.58
49315;BME280;36672;50.710;12.498;2023-02-20T09:38:24;98899.19;;;9.91;57.28
49315;BME280;36672;50.710;12.498;2023-02-20T09:40:52;98894.81;;;9.90;57.63
49315;BME280;36672;50.710;12.498;2023-02-20T09:45:50;98883.91;;;9.83;56.79
49315;BME280;36672;50.710;12.498;2023-02-20T09:48:22;98886.78;;;9.82;58.68
49315;BME280;36672;50.710;12.498;2023-02-20T09:50:58;98882.97;;;9.76;57.80
49315;BME280;36672;50.710;12.498;2023-02-20T09:53:37;98881.50;;;9.73;57.18
49315;BME280;36672;50.710;12.498;2023-02-20T09:56:03;98884.75;;;9.84;57.09
49315;BME280;36672;50.710;12.498;2023-02-20T10:00:59;98876.09;;;9.88;57.53
49315;BME280;36672;50.710;12.498;2023-02-20T10:05:50;98891.09;;;9.91;57.09
49315;BME280;36672;50.710;12.498;2023-02-20T10:08:18;98861.19;;;9.92;57.44
49315;BME280;36672;50.710;12.498;2023-02-20T10:10:44;98870.50;;;10.20;56.83
49315;BME280;36672;50.710;12.498;2023-02-20T10:13:24;98871.13;;;10.22;55.81
49315;BME280;36672;50.710;12.498;2023-02-20T10:18:38;98865.16;;;10.26;55.90
49315;BME280;36672;50.710;12.498;2023-02-20T10:23:48;98846.56;;;10.17;56.73
49315;BME280;36672;50.710;12.498;2023-02-20T10:26:15;98849.78;;;10.27;56.88
49315;BME280;36672;50.710;12.498;2023-02-20T10:28:42;98850.72;;;10.49;55.96
49315;BME280;36672;50.710;12.498;2023-02-20T10:33:43;98860.09;;;11.82;53.33
49315;BME280;36672;50.710;12.498;2023-02-20T10:38:46;98860.53;;;13.63;49.06
49315;BME280;36672;50.710;12.498;2023-02-20T10:41:17;98865.78;;;13.58;48.36
49315;BME280;36672;50.710;12.498;2023-02-20T10:43:45;98863.09;;;13.44;48.86
49315;BME280;36672;50.710;12.498;2023-02-20T10:46:14;98852.38;;;13.76;49.84
49315;BME280;36672;50.710;12.498;2023-02-20T10:48:41;98839.25;;;13.60;47.87
49315;BME280;36672;50.710;12.498;2023-02-20T10:51:29;98845.31;;;13.62;48.92
49315;BME280;36672;50.710;12.498;2023-02-20T10:54:30;98836.31;;;13.68;48.02
49315;BME280;36672;50.710;12.498;2023-02-20T10:59:50;98808.78;;;12.91;49.42
49315;BME280;36672;50.710;12.498;2023-02-20T11:02:24;98835.47;;;12.73;49.47
49315;BME280;36672;50.710;12.498;2023-02-20T11:04:51;98819.84;;;13.29;48.77
49315;BME280;36672;50.710;12.498;2023-02-20T11:07:18;98828.31;;;14.00;48.62
49315;BME280;36672;50.710;12.498;2023-02-20T11:09:44;98809.75;;;14.35;46.92
49315;BME280;36672;50.710;12.498;2023-02-20T11:12:27;98806.84;;;14.24;45.73
49315;BME280;36672;50.710;12.498;2023-02-20T11:14:57;98809.47;;;14.50;46.46
49315;BME280;36672;50.710;12.498;2023-02-20T11:17:24;98816.03;;;14.29;46.18
49315;BME280;36672;50.710;12.498;2023-02-20T11:22:17;98819.72;;;14.03;45.88
49315;BME280;36672;50.710;12.498;2023-02-20T11:24:44;98819.16;;;13.88;46.42
49315;BME280;36672;50.710;12.498;2023-02-20T11:27:16;98814.47;;;13.43;47.38
49315;BME280;36672;50.710;12.498;2023-02-20T11:32:32;98804.19;;;13.58;47.14
49315;BME280;36672;50.710;12.498;2023-02-20T11:35:14;98795.81;;;13.73;47.45
49315;BME280;36672;50.710;12.498;2023-02-20T11:37:45;98785.81;;;13.53;47.57
49315;BME280;36672;50.710;12.498;2023-02-20T11:40:30;98790.41;;;13.60;47.39
49315;BME280;36672;50.710;12.498;2023-02-20T11:43:08;98779.78;;;13.45;47.26
49315;BME280;36672;50.710;12.498;2023-02-20T11:45:33;98779.34;;;13.54;46.73
49315;BME280;36672;50.710;12.498;2023-02-20T11:48:05;98774.72;;;13.55;47.72
49315;BME280;36672;50.710;12.498;2023-02-20T11:50:52;98763.19;;;13.80;47.46
49315;BME280;36672;50.710;12.498;2023-02-20T11:53:24;98767.81;;;14.18;45.73
49315;BME280;36672;50.710;12.498;2023-02-20T11:56:11;98781.44;;;14.11;46.28
49315;BME280;36672;50.710;12.498;2023-02-20T11:58:35;98767.50;;;13.94;46.01
49315;BME280;36672;50.710;12.498;2023-02-20T12:01:01;98774.75;;;14.14;46.02
49315;BME280;36672;50.710;12.498;2023-02-20T12:03:28;98769.31;;;14.46;45.08
49315;BME280;36672;50.710;12.498;2023-02-20T12:05:54;98762.66;;;14.42;45.19
49315;BME280;36672;50.710;12.498;2023-02-20T12:10:47;98768.50;;;14.07;45.03
49315;BME280;36672;50.710;12.498;2023-02-20T12:13:16;98753.81;;;14.14;45.42
49315;BME280;36672;50.710;12.498;2023-02-20T12:15:42;98750.59;;;14.31;44.58
49315;BME280;36672;50.710;12.498;2023-02-20T12:20:36;98745.19;;;14.56;45.18
49315;BME280;36672;50.710;12.498;2023-02-20T12:25:41;98738.00;;;13.59;45.53
49315;BME280;36672;50.710;12.498;2023-02-20T12:28:16;98739.50;;;13.42;46.74
49315;BME280;36672;50.710;12.498;2023-02-20T12:31:02;98719.91;;;12.99;46.86
49315;BME280;36672;50.710;12.498;2023-02-20T12:33:52;98726.41;;;12.85;47.65
49315;BME280;36672;50.710;12.498;2023-02-20T12:38:53;98724.31;;;12.47;47.78
49315;BME280;36672;50.710;12.498;2023-02-20T12:41:32;98737.66;;;12.68;47.99
49315;BME280;36672;50.710;12.498;2023-02-20T12:46:30;98702.22;;;12.50;48.31
49315;BME280;36672;50.710;12.498;2023-02-20T12:54:42;98663.66;;;12.54;49.44
49315;BME280;36672;50.710;12.498;2023-02-20T13:02:14;98651.53;;;12.70;49.46
49315;BME280;36672;50.710;12.498;2023-02-20T13:04:46;98627.13;;;12.84;47.93
49315;BME280;36672;50.710;12.498;2023-02-20T13:10:03;98628.19;;;13.48;47.03
49315;BME280;36672;50.710;12.498;2023-02-20T13:12:30;98629.63;;;13.51;46.71
49315;BME280;36672;50.710;12.498;2023-02-20T13:15:17;98625.50;;;13.42;46.60
49315;BME280;36672;50.710;12.498;2023-02-20T13:17:47;98623.84;;;13.27;47.06
49315;BME280;36672;50.710;12.498;2023-02-20T13:22:38;98625.59;;;13.08;47.54
49315;BME280;36672;50.710;12.498;2023-02-20T13:25:30;98628.09;;;13.03;47.63
49315;BME280;36672;50.710;12.498;2023-02-20T13:28:06;98610.34;;;13.07;47.68
49315;BME280;36672;50.710;12.498;2023-02-20T13:30:38;98595.78;;;13.53;47.53
49315;BME280;36672;50.710;12.498;2023-02-20T13:33:21;98587.94;;;13.77;46.77
49315;BME280;36672;50.710;12.498;2023-02-20T13:35:49;98576.91;;;13.72;46.38
49315;BME280;36672;50.710;12.498;2023-02-20T13:38:17;98568.25;;;13.50;46.55
49315;BME280;36672;50.710;12.498;2023-02-20T13:45:45;98565.13;;;12.94;49.07
49315;BME280;36672;50.710;12.498;2023-02-20T13:50:42;98564.97;;;12.82;48.42
49315;BME280;36672;50.710;12.498;2023-02-20T13:53:07;98562.31;;;12.62;49.22
49315;BME280;36672;50.710;12.498;2023-02-20T13:55:33;98564.00;;;12.56;49.65
49315;BME280;36672;50.710;12.498;2023-02-20T14:00:46;98558.38;;;12.45;50.34
49315;BME280;36672;50.710;12.498;2023-02-20T14:03:33;98557.16;;;12.40;50.67
49315;BME280;36672;50.710;12.498;2023-02-20T14:06:01;98555.91;;;12.10;50.79
49315;BME280;36672;50.710;12.498;2023-02-20T14:08:27;98548.44;;;12.05;51.44
49315;BME280;36672;50.710;12.498;2023-02-20T14:10:52;98547.78;;;12.10;51.39
49315;BME280;36672;50.710;12.498;2023-02-20T14:13:18;98551.56;;;12.09;51.68
49315;BME280;36672;50.710;12.498;2023-02-20T14:15:46;98554.44;;;12.00;51.85
49315;BME280;36672;50.710;12.498;2023-02-20T14:18:32;98543.19;;;11.97;52.03
49315;BME280;36672;50.710;12.498;2023-02-20T14:21:08;98550.94;;;12.00;51.94
49315;BME280;36672;50.710;12.498;2023-02-20T14:23:34;98559.41;;;11.77;52.04
49315;BME280;36672;50.710;12.498;2023-02-20T14:26:00;98564.81;;;11.77;52.46
49315;BME280;36672;50.710;12.498;2023-02-20T14:28:27;98561.06;;;11.84;53.12
49315;BME280;36672;50.710;12.498;2023-02-20T14:31:03;98578.13;;;11.71;52.34
49315;BME280;36672;50.710;12.498;2023-02-20T14:33:28;98570.00;;;11.71;52.77
49315;BME280;36672;50.710;12.498;2023-02-20T14:40:57;98553.41;;;11.95;52.61